Detall de PIREP

Printer-friendly versionPDF version

[2012/11/01 20:36:00]
Flight IATA:CT1005
Pilot Number:037
Company ICAO:CAT
Aircraft Type:B752/E
PAX:136
Aircraft Registration:PAX
Departing Airport: EINN
Destination Airport: EHAM
Alternate Airport:EHRD
Online: VATSIM
Route:ABAGU DCT SLANY UL9 CPT UQ295 BPK UM185 CLN UL620 REDFA

Flight Level:F350
No Slew and time accel
No pause
Crash detect
Detect pilot in Cockpit between each 30 and 45 minutes
20:36 Zero fuel Weight: 167820 Lbs, Fuel Weight: 18946 Lbs
20:36 VATSIM:EINN 011930Z 28014G25KT 8000 -SHRA FEW015 BKN018CB 06/04 Q0982 NOSIG
20:36 VATSIM:EHAM 011925Z 20014KT 160V230 9999 -SHRA SCT020CB 07/05 Q0982 TEMPO 22020G30KT 7000
20:46 Parking Brakes off
20:58 Take-off
20:58 Take off Weight: 185192 Lbs
20:58 Wind: 279º @ 021 Knots Heading: 231º
20:58 POS N52º 42´ 11´´ W008º 55´ 19´´
20:58 Flaps:2 at 190 Knots
20:58 Gear Up: 201 Knots
20:58 Flaps:1 at 202 Knots
20:58 Flaps:0 at 209 Knots
21:13 Wind:247º@052 Knots Heading: 108º Ground Speed: 504 Knots Altitude 30193 ft
21:15 TOC
21:15 Fuel Weight: 13096 Lb
21:28 Wind:241º@050 Knots Heading: 106º Ground Speed: 509 Knots Altitude 34104 ft
21:43 Wind:227º@037 Knots Heading: 087º Ground Speed: 497 Knots Altitude 34124 ft
21:46 TOD
21:46 Fuel Weight: 8791 Lb
21:58 Wind:224º@045 Knots Heading: 062º Ground Speed: 389 Knots Altitude 21499 ft
22:08 Flaps:1 at 203 Knots
22:10 Flaps:2 at 181 Knots
22:10 Flaps:3 at 175 Knots
22:10 Gear Down: 176 Knots
22:11 Flaps:4 at 156 Knots
22:12 Flaps:5 at 138 Knots
22:12 Flaps:6 at 129 Knots
22:13 Wind:249º@014 Knots Heading: 187º Ground Speed: 122 Knots Altitude 626 ft
22:14 TouchDown:Rate -167 ft/min Speed: 119 Knots
22:14 VATSIM:EHAM 012125Z 24014KT 9999 FEW022CB SCT029 08/04 Q0984 NOSIG
22:14 Land
22:14 Wind:241º@014 Knots
22:14 Heading: 176º
22:14 Flight Duration: 01:16
22:14 Landing Weight: 174425 Lbs
22:14 POS N52º 19´ 03´´ E004º 44´ 19´´
22:18 Parking brakes on
22:18 Block to Block Duration: 01:32
22:18 Final Fuel: 6049 Lbls
22:18 Spent Fuel: 12896 Lbls
22:18 Flight Length: 407 NM
22:18 TOD Land Length: 152 NM

Exportar CSV

Powered by Drupal - Modified by Danger4k